Time;durP1;ratioP1;P1;durP2;ratioP2;P2;SDS_P1;SDS_P2;PMS_P1;PMS_P2;Temp;Humidity;BMP_temperature;BMP_pressure;BME280_temperature;BME280_humidity;BME280_pressure;Samples;Min_cycle;Max_cycle;Signal;HPM_P1;HPM_P2
2021/04/07 00:40:25;;;;;;;27.25;6.30;;;20.10;99.90;;;;;;5041342;28;20884;-78
2021/04/07 05:01:28;;;;;;;37.22;9.32;;;15.70;99.90;;;;;;5039917;28;20052;-75
2021/04/07 05:03:55;;;;;;;30.15;7.90;;;15.60;99.90;;;;;;5035651;28;20437;-76
2021/04/07 11:11:26;;;;;;;36.15;11.73;;;12.40;99.90;;;;;;5042784;28;20440;-69
2021/04/07 11:13:53;;;;;;;34.00;11.43;;;12.30;99.90;;;;;;5044213;28;20183;-72
2021/04/07 11:16:29;;;;;;;41.67;10.57;;;12.30;99.90;;;;;;5042621;28;20032;-71
2021/04/07 11:18:55;;;;;;;34.00;10.90;;;12.40;99.90;;;;;;5042628;28;20020;-70
2021/04/07 11:21:22;;;;;;;34.30;11.50;;;12.40;99.90;;;;;;5043078;28;20507;-70
2021/04/07 11:23:49;;;;;;;39.72;11.90;;;12.50;99.90;;;;;;5043578;28;20483;-72
2021/04/07 11:26:15;;;;;;;36.55;11.07;;;12.50;99.90;;;;;;5043522;28;20020;-73
2021/04/07 11:28:42;;;;;;;34.35;10.77;;;12.50;99.90;;;;;;5043937;28;20037;-73
2021/04/07 11:31:21;;;;;;;41.05;12.50;;;12.50;99.90;;;;;;5044356;28;20029;-74
2021/04/07 11:33:54;;;;;;;41.88;11.88;;;12.50;99.90;;;;;;5042746;28;20029;-72
2021/04/07 11:46:38;;;;;;;36.53;10.82;;;12.60;99.90;;;;;;5044705;28;20609;-71
2021/04/07 11:49:06;;;;;;;30.83;11.13;;;12.50;99.90;;;;;;5044443;28;20025;-73
2021/04/07 16:57:06;;;;;;;17.50;7.65;;;18.50;99.90;;;;;;5061442;28;20165;-71
2021/04/07 16:59:33;;;;;;;25.75;8.27;;;18.40;99.90;;;;;;5040887;28;20039;-71
2021/04/07 20:46:00;;;;;;;20.17;6.28;;;25.20;98.70;;;;;;5040630;28;20125;-72
2021/04/07 20:48:27;;;;;;;22.67;5.88;;;25.60;99.60;;;;;;5038380;28;20507;-65
2021/04/07 20:50:53;;;;;;;20.75;6.05;;;25.00;99.40;;;;;;5023356;28;20554;-69
2021/04/07 20:53:20;;;;;;;21.70;7.57;;;24.60;99.90;;;;;;5041533;28;20044;-68
2021/04/07 20:55:47;;;;;;;23.77;6.82;;;24.20;99.90;;;;;;5041454;28;20025;-66
2021/04/07 20:58:13;;;;;;;23.63;6.68;;;23.40;99.90;;;;;;5037991;28;20574;-65
2021/04/07 21:00:41;;;;;;;22.95;6.88;;;23.30;99.90;;;;;;5040733;28;20063;-69
2021/04/07 21:03:08;;;;;;;16.33;5.88;;;23.30;99.90;;;;;;5038101;28;20074;-68
2021/04/07 21:05:34;;;;;;;23.02;6.32;;;24.10;99.90;;;;;;5045603;28;20087;-71
2021/04/07 21:08:01;;;;;;;27.02;6.75;;;24.40;99.90;;;;;;5043312;28;22285;-67
2021/04/07 21:10:27;;;;;;;20.50;7.72;;;23.90;99.90;;;;;;5043117;28;20111;-71
2021/04/07 21:12:54;;;;;;;22.80;6.60;;;23.70;99.90;;;;;;5046495;28;20103;-71
2021/04/07 21:15:20;;;;;;;18.23;5.80;;;24.00;99.90;;;;;;5034169;28;20158;-75
2021/04/07 21:17:47;;;;;;;16.13;5.18;;;24.70;99.90;;;;;;5045488;28;20039;-78
2021/04/07 21:20:14;;;;;;;17.50;5.13;;;25.20;99.50;;;;;;5047840;28;20024;-79
2021/04/07 21:22:41;;;;;;;18.95;5.82;;;24.80;99.30;;;;;;5045492;28;20593;-73
2021/04/07 21:25:08;;;;;;;15.90;5.57;;;24.40;99.90;;;;;;5043690;28;20033;-76
2021/04/07 21:27:34;;;;;;;23.17;6.93;;;24.70;99.90;;;;;;5046435;28;20570;-71
2021/04/07 21:30:01;;;;;;;20.50;6.18;;;24.70;99.80;;;;;;5045184;28;20063;-78
2021/04/07 21:32:28;;;;;;;17.08;5.20;;;24.70;99.90;;;;;;5039545;28;20155;-69
2021/04/07 21:34:54;;;;;;;24.67;6.88;;;24.80;99.90;;;;;;5043641;28;20021;-67
2021/04/07 21:37:22;;;;;;;20.10;6.30;;;24.40;99.90;;;;;;5043654;28;20040;-70
2021/04/07 21:39:49;;;;;;;20.75;6.07;;;24.60;99.90;;;;;;5045694;28;20067;-71
2021/04/07 21:42:15;;;;;;;20.38;6.35;;;25.10;99.30;;;;;;5043213;28;20567;-71
2021/04/07 21:44:42;;;;;;;32.72;8.07;;;25.10;99.60;;;;;;5046064;28;20401;-70
2021/04/07 21:47:09;;;;;;;23.00;6.88;;;24.50;99.90;;;;;;5040764;28;20043;-70
2021/04/07 21:49:35;;;;;;;31.25;6.93;;;24.60;99.90;;;;;;5045194;28;20490;-66
2021/04/07 21:52:02;;;;;;;28.75;6.50;;;25.30;99.90;;;;;;5043484;28;20036;-67
2021/04/07 21:54:28;;;;;;;26.00;8.52;;;24.80;99.90;;;;;;5046914;28;22263;-66
2021/04/07 21:56:55;;;;;;;27.42;6.75;;;24.50;99.90;;;;;;5024792;28;20028;-67
2021/04/07 21:59:22;;;;;;;37.42;7.82;;;24.40;99.90;;;;;;5040758;28;20167;-70
